createdAt,value
2023-01-17T00:00:09.607Z,32.00
2023-01-17T00:01:29.318Z,34.00
2023-01-17T00:02:38.182Z,32.75
2023-01-17T00:04:13.016Z,31.00
2023-01-17T00:05:35.079Z,30.50
2023-01-17T00:06:56.164Z,31.00
2023-01-17T00:08:17.662Z,33.00
2023-01-17T00:09:38.603Z,30.25
2023-01-17T00:10:42.250Z,31.25
2023-01-17T00:11:44.879Z,30.00
2023-01-17T00:12:53.806Z,29.50
2023-01-17T00:13:56.412Z,30.00
2023-01-17T00:15:00.253Z,33.00
2023-01-17T00:16:03.002Z,30.00
2023-01-17T00:17:05.685Z,32.75
2023-01-17T00:18:08.469Z,32.00
2023-01-17T00:19:29.591Z,32.25
2023-01-17T00:20:54.997Z,31.50
2023-01-17T00:22:17.218Z,33.00
2023-01-17T00:23:44.058Z,34.25
2023-01-17T00:25:06.193Z,32.50
2023-01-17T00:26:20.605Z,34.00
2023-01-17T00:27:23.214Z,34.50
2023-01-17T00:28:26.967Z,33.00
2023-01-17T00:29:29.571Z,34.00
2023-01-17T00:30:32.522Z,31.75
2023-01-17T00:31:35.152Z,31.00
2023-01-17T00:32:37.757Z,34.00
2023-01-17T00:33:40.606Z,34.25
2023-01-17T00:34:43.499Z,33.00
2023-01-17T00:35:46.128Z,34.00
2023-01-17T00:36:51.256Z,34.50
2023-01-17T00:38:03.788Z,34.50
2023-01-17T00:39:06.485Z,36.00
2023-01-17T00:40:10.561Z,35.00
2023-01-17T00:41:15.611Z,34.00
2023-01-17T00:42:18.292Z,34.50
2023-01-17T00:43:42.248Z,34.25
2023-01-17T00:45:03.468Z,34.00
2023-01-17T00:46:25.064Z,34.00
2023-01-17T00:47:48.304Z,34.00
2023-01-17T00:49:09.857Z,34.00
2023-01-17T00:50:30.971Z,34.00
2023-01-17T00:51:54.183Z,36.00
2023-01-17T00:53:15.305Z,34.00
2023-01-17T00:54:36.991Z,34.00
2023-01-17T00:55:58.018Z,35.25
2023-01-17T00:57:19.857Z,35.50
2023-01-17T00:58:40.925Z,37.25
2023-01-17T01:00:02.093Z,35.75
2023-01-17T01:01:26.947Z,36.25
2023-01-17T01:02:50.223Z,37.25
2023-01-17T01:04:11.302Z,40.50
2023-01-17T01:05:33.513Z,41.50
2023-01-17T01:06:54.611Z,43.00
2023-01-17T01:08:16.206Z,40.00
2023-01-17T01:09:37.043Z,38.25
2023-01-17T01:10:58.364Z,37.00
2023-01-17T01:12:19.434Z,37.00
2023-01-17T01:17:06.244Z,36.00
2023-01-17T01:18:28.820Z,34.00
2023-01-17T01:19:49.902Z,34.00
2023-01-17T01:21:10.898Z,34.00
2023-01-17T01:22:40.632Z,35.00
2023-01-17T01:28:34.021Z,35.00
2023-01-17T01:29:55.455Z,36.25
2023-01-17T01:31:19.517Z,35.00
2023-01-17T01:32:40.606Z,36.00
2023-01-17T01:33:43.283Z,34.50
2023-01-17T01:34:45.924Z,35.25
2023-01-17T01:35:51.059Z,36.00
2023-01-17T01:36:53.724Z,35.25
2023-01-17T01:37:56.434Z,34.50
2023-01-17T01:38:59.109Z,34.50
2023-01-17T01:40:01.919Z,36.00
2023-01-17T01:41:05.087Z,34.50
2023-01-17T01:42:16.515Z,35.50
2023-01-17T01:43:22.534Z,35.00
2023-01-17T01:44:52.476Z,35.25
2023-01-17T01:45:59.229Z,37.00
2023-01-17T01:47:02.167Z,34.00
2023-01-17T01:48:26.046Z,34.50
2023-01-17T01:49:30.694Z,36.00
2023-01-17T01:50:37.342Z,34.00
2023-01-17T01:51:45.931Z,33.75
2023-01-17T01:52:52.740Z,30.25
2023-01-17T01:54:01.035Z,31.00
2023-01-17T01:55:08.587Z,31.00
2023-01-17T01:56:14.688Z,31.00
2023-01-17T01:57:21.166Z,31.00
2023-01-17T01:58:28.089Z,31.00
2023-01-17T01:59:32.042Z,33.00
2023-01-17T02:00:37.706Z,29.25
2023-01-17T02:01:40.599Z,30.00
2023-01-17T02:02:45.782Z,28.00
2023-01-17T02:03:50.336Z,28.25
2023-01-17T02:04:53.709Z,28.25
2023-01-17T02:05:56.507Z,26.00
2023-01-17T02:07:08.307Z,29.00
2023-01-17T02:08:17.671Z,31.00
2023-01-17T02:09:21.333Z,28.00
2023-01-17T02:10:24.100Z,28.25
2023-01-17T02:11:27.398Z,31.25
2023-01-17T02:12:30.137Z,32.00
2023-01-17T02:13:32.795Z,30.25
2023-01-17T02:14:35.530Z,31.50
2023-01-17T02:15:38.259Z,30.75
2023-01-17T02:16:45.414Z,30.75
2023-01-17T02:18:22.599Z,29.00
2023-01-17T02:19:35.657Z,31.50
2023-01-17T02:20:42.096Z,31.75
2023-01-17T02:22:16.711Z,36.00
2023-01-17T02:23:37.265Z,34.50
2023-01-17T02:25:04.725Z,34.00
2023-01-17T02:26:54.598Z,34.50
2023-01-17T02:28:16.711Z,32.50
2023-01-17T02:29:40.901Z,33.00
2023-01-17T02:30:48.290Z,34.00
2023-01-17T02:32:04.308Z,34.50
2023-01-17T02:33:11.107Z,36.00
2023-01-17T02:34:18.403Z,36.00
2023-01-17T02:35:29.940Z,35.75
2023-01-17T02:37:01.330Z,36.00
2023-01-17T02:38:24.984Z,33.50
2023-01-17T02:39:38.382Z,33.50
2023-01-17T02:40:56.119Z,35.00
2023-01-17T02:42:04.815Z,34.50
2023-01-17T02:43:14.730Z,34.50
2023-01-17T02:44:20.668Z,32.50
2023-01-17T02:45:23.599Z,34.50
2023-01-17T02:46:26.349Z,33.00
2023-01-17T02:47:31.378Z,32.00
2023-01-17T02:48:38.117Z,32.75
2023-01-17T02:49:40.912Z,31.50
2023-01-17T03:05:22.344Z,26.00
2023-01-17T03:06:33.513Z,24.00
2023-01-17T03:07:40.903Z,26.00
2023-01-17T03:08:46.980Z,25.00
2023-01-17T03:09:54.698Z,25.75
2023-01-17T03:10:58.346Z,27.00
2023-01-17T03:12:01.136Z,25.50
2023-01-17T03:13:05.098Z,25.00
2023-01-17T03:14:07.745Z,23.50
2023-01-17T03:15:15.935Z,25.00
2023-01-17T03:16:23.148Z,25.00
2023-01-17T03:17:32.806Z,25.00
2023-01-17T03:18:35.783Z,23.00
2023-01-17T03:19:38.571Z,26.00
2023-01-17T03:20:41.219Z,26.00
2023-01-17T03:21:44.068Z,27.00
2023-01-17T03:22:46.732Z,26.00
2023-01-17T03:23:49.404Z,26.00
2023-01-17T03:24:52.123Z,25.50
2023-01-17T03:25:54.802Z,26.50
2023-01-17T03:26:57.513Z,25.25
2023-01-17T03:28:00.208Z,24.00
2023-01-17T03:29:03.289Z,24.75
2023-01-17T03:30:06.478Z,24.00
2023-01-17T03:31:09.289Z,25.00
2023-01-17T03:32:11.917Z,24.00
2023-01-17T03:33:14.648Z,23.00
2023-01-17T03:34:17.317Z,25.00
2023-01-17T03:35:20.003Z,24.00
2023-01-17T03:36:22.790Z,23.00
2023-01-17T03:37:25.712Z,21.00
2023-01-17T03:38:29.952Z,22.00
2023-01-17T03:39:32.602Z,21.00
2023-01-17T03:40:35.315Z,22.00
2023-01-17T03:41:37.969Z,21.50
2023-01-17T03:42:40.980Z,21.75
2023-01-17T03:43:43.637Z,19.50
2023-01-17T03:44:46.678Z,18.00
2023-01-17T03:45:55.457Z,21.50
2023-01-17T03:46:58.225Z,20.00
2023-01-17T03:48:01.373Z,19.00
2023-01-17T03:49:04.033Z,18.00
2023-01-17T03:50:07.239Z,18.00
2023-01-17T03:51:09.904Z,19.00
2023-01-17T03:52:12.548Z,18.00
2023-01-17T03:53:15.178Z,17.00
2023-01-17T03:54:17.797Z,17.00
2023-01-17T03:55:20.453Z,17.00
2023-01-17T03:56:23.122Z,18.00
2023-01-17T03:57:27.100Z,18.00
2023-01-17T03:58:30.014Z,18.00
2023-01-17T03:59:35.064Z,17.00
2023-01-17T04:00:38.023Z,18.00
2023-01-17T04:01:40.788Z,17.00
2023-01-17T04:02:43.861Z,18.00
2023-01-17T04:03:46.704Z,16.00
2023-01-17T04:04:49.381Z,15.00
2023-01-17T04:05:52.269Z,15.00
2023-01-17T04:06:55.709Z,15.50
2023-01-17T04:19:50.180Z,10.75
2023-01-17T04:20:53.704Z,10.50
2023-01-17T04:21:56.433Z,11.75
2023-01-17T04:22:59.150Z,14.00
2023-01-17T04:24:01.831Z,14.50
2023-01-17T04:25:04.627Z,14.00
2023-01-17T04:26:07.313Z,11.00
2023-01-17T04:27:15.259Z,11.25
2023-01-17T04:28:17.990Z,11.25
2023-01-17T04:29:20.798Z,9.00
2023-01-17T04:30:23.635Z,6.50
2023-01-17T04:31:26.279Z,7.00
2023-01-17T04:32:30.659Z,7.00
2023-01-17T04:33:33.557Z,7.00
2023-01-17T04:34:36.238Z,7.50
2023-01-17T04:35:38.880Z,7.00
2023-01-17T04:36:41.813Z,5.00
2023-01-17T04:37:47.168Z,6.00
2023-01-17T04:38:49.791Z,6.00
2023-01-17T04:39:52.499Z,5.50
2023-01-17T04:40:55.112Z,3.00
2023-01-17T04:41:57.840Z,3.00
2023-01-17T04:43:00.673Z,3.00
2023-01-17T04:44:03.381Z,3.00
2023-01-17T04:45:06.518Z,3.00
2023-01-17T04:46:11.210Z,3.25
2023-01-17T04:47:13.871Z,3.00
2023-01-17T04:48:16.503Z,3.00
2023-01-17T04:49:19.146Z,2.00
2023-01-17T04:50:21.889Z,1.00
2023-01-17T04:51:24.556Z,1.00
2023-01-17T04:52:27.259Z,2.00
2023-01-17T04:53:30.138Z,2.00
2023-01-17T04:54:32.758Z,2.00
2023-01-17T04:55:35.437Z,1.00
2023-01-17T04:56:45.611Z,1.00
2023-01-17T04:57:57.570Z,1.25
2023-01-17T04:59:02.192Z,1.50
2023-01-17T05:02:11.602Z,2.00
2023-01-17T05:03:14.527Z,1.50
2023-01-17T05:05:09.903Z,0.00
2023-01-17T05:05:53.899Z,2.00
2023-01-17T05:07:02.885Z,3.00
2023-01-17T05:08:08.220Z,2.00
2023-01-17T05:09:10.895Z,2.00
2023-01-17T05:10:16.865Z,2.00
2023-01-17T05:11:25.310Z,1.25
2023-01-17T05:12:29.071Z,2.00
2023-01-17T05:13:31.767Z,0.00
2023-01-17T05:14:35.464Z,0.00
2023-01-17T05:15:41.379Z,1.50
2023-01-17T05:16:44.117Z,1.25
2023-01-17T05:17:46.734Z,1.00
2023-01-17T05:18:53.720Z,1.00
2023-01-17T05:19:56.360Z,1.50
2023-01-17T05:21:03.239Z,2.00
2023-01-17T05:22:15.873Z,2.00
2023-01-17T05:23:18.571Z,0.00
2023-01-17T05:24:21.840Z,3.00
2023-01-17T05:25:27.302Z,2.00
2023-01-17T05:26:29.958Z,2.75
2023-01-17T05:27:32.602Z,3.00
2023-01-17T05:28:35.282Z,2.00
2023-01-17T05:29:38.163Z,3.00
2023-01-17T05:30:41.115Z,3.00
2023-01-17T05:31:43.856Z,3.00
2023-01-17T05:32:50.716Z,2.00
2023-01-17T05:33:53.427Z,3.00
2023-01-17T05:34:56.087Z,3.00
2023-01-17T05:35:59.302Z,3.00
2023-01-17T05:37:02.627Z,3.00
2023-01-17T05:38:05.766Z,3.00
2023-01-17T05:39:08.556Z,2.00
2023-01-17T05:40:11.980Z,2.75
2023-01-17T05:41:14.684Z,3.00
2023-01-17T05:42:17.346Z,3.00
2023-01-17T05:43:39.972Z,3.00
2023-01-17T05:46:22.269Z,3.00
2023-01-17T05:47:28.367Z,3.00
2023-01-17T05:48:31.245Z,4.00
2023-01-17T05:57:22.184Z,3.00
2023-01-17T05:58:24.859Z,3.00
2023-01-17T05:59:36.980Z,0.25
2023-01-17T06:00:40.289Z,3.00
2023-01-17T06:01:43.464Z,3.00
2023-01-17T06:02:47.180Z,1.00
2023-01-17T06:03:49.920Z,3.00
2023-01-17T06:04:52.751Z,3.00
2023-01-17T06:05:56.392Z,3.00
2023-01-17T06:06:59.016Z,3.00
2023-01-17T06:08:01.770Z,2.00
2023-01-17T06:09:04.617Z,3.00
2023-01-17T06:10:07.775Z,1.00
2023-01-17T06:11:10.636Z,2.00
2023-01-17T06:12:13.353Z,2.75
2023-01-17T06:13:21.829Z,3.00
2023-01-17T06:14:24.457Z,4.75
2023-01-17T06:15:27.197Z,3.00
2023-01-17T06:16:30.993Z,3.00
2023-01-17T06:17:33.682Z,3.00
2023-01-17T06:18:36.314Z,5.00
2023-01-17T06:19:38.932Z,4.00
2023-01-17T06:20:41.676Z,6.00
2023-01-17T06:21:44.480Z,5.75
2023-01-17T06:22:47.096Z,4.00
2023-01-17T06:23:49.756Z,3.00
2023-01-17T06:24:52.552Z,3.00
2023-01-17T06:25:55.236Z,3.00
2023-01-17T06:27:01.416Z,3.00
2023-01-17T06:28:04.166Z,3.00
2023-01-17T06:29:06.970Z,4.00
2023-01-17T06:30:10.358Z,5.25
2023-01-17T06:31:13.147Z,4.00
2023-01-17T06:32:15.860Z,4.50
2023-01-17T06:33:18.603Z,3.00
2023-01-17T06:34:21.237Z,3.00
2023-01-17T06:35:24.455Z,3.00
2023-01-17T06:36:27.070Z,5.00
2023-01-17T06:37:29.870Z,7.00
2023-01-17T06:38:32.675Z,5.50
2023-01-17T06:39:35.327Z,5.25
2023-01-17T06:40:37.993Z,6.00
2023-01-17T06:41:40.666Z,7.00
2023-01-17T06:42:43.399Z,8.50
2023-01-17T06:43:46.018Z,7.00
2023-01-17T06:44:48.652Z,5.00
2023-01-17T06:45:51.492Z,4.25
2023-01-17T06:46:54.700Z,6.00
2023-01-17T06:47:57.506Z,7.00
2023-01-17T06:49:00.117Z,5.00
2023-01-17T06:50:04.536Z,4.75
2023-01-17T06:51:07.394Z,3.25
2023-01-17T06:52:10.034Z,4.75
2023-01-17T06:53:12.674Z,4.00
2023-01-17T06:54:15.383Z,3.00
2023-01-17T06:55:18.171Z,4.00
2023-01-17T06:56:21.429Z,3.00
2023-01-17T06:57:24.186Z,4.00
2023-01-17T06:58:26.879Z,4.00
2023-01-17T06:59:30.154Z,6.00
2023-01-17T07:00:36.488Z,6.00
2023-01-17T07:01:41.007Z,5.00
2023-01-17T07:02:43.807Z,4.00
2023-01-17T07:03:46.582Z,5.00
2023-01-17T07:04:49.229Z,7.75
2023-01-17T07:05:52.420Z,12.00
2023-01-17T07:06:55.353Z,18.25
2023-01-17T07:07:58.784Z,18.25
2023-01-17T07:09:02.171Z,32.25
2023-01-17T07:10:06.117Z,36.50
2023-01-17T07:11:11.277Z,24.25
2023-01-17T07:12:16.495Z,14.50
2023-01-17T07:13:29.331Z,6.00
2023-01-17T07:15:42.688Z,4.00
2023-01-17T07:16:47.167Z,3.00
2023-01-17T07:17:49.805Z,3.00
2023-01-17T07:18:52.922Z,3.00
2023-01-17T07:19:55.549Z,4.00
2023-01-17T07:20:58.218Z,4.00
2023-01-17T07:22:00.877Z,5.00
2023-01-17T07:23:03.887Z,4.00
2023-01-17T07:24:07.093Z,5.00
2023-01-17T07:25:10.151Z,3.75
2023-01-17T07:26:12.826Z,3.00
2023-01-17T07:27:15.469Z,3.00
2023-01-17T07:28:18.090Z,3.00
2023-01-17T07:29:20.769Z,3.00
2023-01-17T07:30:26.521Z,3.50
2023-01-17T07:31:29.188Z,3.00
2023-01-17T07:32:31.923Z,3.00
2023-01-17T07:33:35.035Z,3.00
2023-01-17T07:34:38.185Z,3.75
2023-01-17T07:35:40.872Z,3.75
2023-01-17T07:36:59.769Z,5.00
2023-01-17T07:38:02.576Z,4.50
2023-01-17T07:39:19.981Z,4.00
2023-01-17T07:40:28.846Z,3.00
2023-01-17T07:41:42.248Z,4.00
2023-01-17T07:43:47.738Z,3.00
2023-01-17T07:44:50.380Z,2.50
2023-01-17T07:45:53.175Z,3.00
2023-01-17T07:46:56.241Z,4.25
2023-01-17T07:47:58.872Z,3.25
2023-01-17T07:49:02.055Z,6.50
2023-01-17T07:50:29.021Z,7.00
2023-01-17T07:52:59.020Z,6.25
2023-01-17T07:54:23.094Z,5.00
2023-01-17T07:55:41.888Z,5.00
2023-01-17T07:58:12.346Z,3.00
2023-01-17T07:59:15.239Z,2.00
2023-01-17T08:00:18.723Z,6.00
2023-01-17T08:01:21.372Z,11.00
2023-01-17T08:02:24.896Z,12.50
2023-01-17T08:03:27.554Z,12.50
2023-01-17T08:04:35.733Z,9.00
2023-01-17T08:05:38.455Z,5.00
2023-01-17T08:06:44.302Z,8.50
2023-01-17T08:07:46.967Z,6.00
2023-01-17T08:08:49.894Z,5.00
2023-01-17T08:09:53.010Z,4.00
2023-01-17T08:10:56.036Z,3.00
2023-01-17T08:11:58.784Z,3.00
2023-01-17T08:13:01.428Z,2.25
2023-01-17T08:14:04.080Z,3.00
2023-01-17T08:15:07.651Z,5.50
2023-01-17T08:16:11.572Z,3.25
2023-01-17T08:17:17.177Z,1.00
2023-01-17T08:18:19.907Z,3.25
2023-01-17T08:19:23.449Z,5.00
2023-01-17T08:20:27.994Z,24.25
2023-01-17T08:21:30.847Z,23.50
2023-01-17T08:22:33.573Z,6.25
2023-01-17T08:23:36.188Z,0.00
2023-01-17T08:24:39.616Z,0.00
2023-01-17T08:25:42.226Z,91.50
2023-01-17T08:26:44.850Z,106.00
2023-01-17T08:27:47.528Z,96.25
2023-01-17T08:28:58.301Z,55.50
2023-01-17T08:30:01.007Z,23.50
2023-01-17T08:31:12.511Z,6.00
2023-01-17T08:32:16.046Z,0.00
2023-01-17T08:33:18.857Z,0.00
2023-01-17T08:34:21.666Z,0.00
2023-01-17T08:35:24.361Z,0.00
2023-01-17T08:36:28.815Z,0.00
2023-01-17T08:37:31.472Z,0.00
2023-01-17T08:38:34.264Z,0.00
2023-01-17T08:39:37.257Z,0.00
2023-01-17T08:40:40.024Z,0.00
2023-01-17T08:41:42.889Z,0.00
2023-01-17T08:42:45.606Z,0.00
2023-01-17T08:43:49.516Z,0.00
2023-01-17T08:44:52.149Z,0.00
2023-01-17T08:45:57.057Z,0.00
2023-01-17T08:46:59.871Z,0.00
2023-01-17T08:48:02.498Z,0.00
2023-01-17T08:49:05.286Z,0.00
2023-01-17T10:51:54.127Z,0.00
2023-01-17T10:53:23.336Z,0.00
2023-01-17T10:54:50.593Z,0.00
2023-01-17T10:55:57.197Z,0.00
2023-01-17T10:57:00.352Z,0.00
2023-01-17T10:58:04.528Z,0.00
2023-01-17T10:59:17.115Z,0.00
2023-01-17T11:00:47.404Z,0.00
2023-01-17T11:01:51.282Z,0.00
2023-01-17T11:02:54.262Z,0.00
2023-01-17T11:03:57.282Z,0.00
2023-01-17T14:24:55.498Z,6.75
2023-01-17T14:26:13.495Z,6.50
2023-01-17T14:27:21.940Z,6.00
2023-01-17T14:28:24.579Z,6.00
2023-01-17T14:29:57.966Z,7.00
2023-01-17T14:31:04.050Z,8.00
2023-01-17T14:32:10.984Z,8.00
2023-01-17T14:33:20.442Z,7.50
2023-01-17T14:34:23.907Z,6.75
2023-01-17T14:35:31.037Z,6.75
2023-01-17T14:36:34.474Z,5.00
2023-01-17T14:37:43.455Z,5.25
2023-01-17T14:38:47.251Z,5.25
2023-01-17T14:39:51.602Z,6.00
2023-01-17T14:41:08.026Z,7.00
2023-01-17T14:42:21.953Z,6.25
2023-01-17T14:43:27.558Z,7.50
2023-01-17T14:44:30.241Z,6.00
2023-01-17T14:45:36.064Z,7.00
2023-01-17T14:46:38.755Z,8.00
2023-01-17T14:47:46.414Z,7.00
2023-01-17T14:49:08.123Z,6.50
2023-01-17T14:50:23.520Z,8.00
2023-01-17T14:51:26.139Z,12.50
2023-01-17T14:52:28.789Z,11.00
2023-01-17T14:53:34.267Z,8.50
2023-01-17T14:54:37.885Z,8.00
2023-01-17T14:55:56.137Z,7.25
2023-01-17T14:57:25.407Z,10.75
2023-01-17T14:58:34.402Z,7.25
2023-01-17T14:59:37.078Z,7.50
2023-01-17T15:00:40.618Z,8.00
2023-01-17T15:02:06.135Z,8.00
2023-01-17T15:03:13.611Z,13.50
2023-01-17T15:04:31.117Z,16.00
2023-01-17T15:05:34.502Z,15.50
2023-01-17T15:06:40.134Z,11.50
2023-01-17T15:07:45.026Z,10.25
2023-01-17T15:08:48.497Z,10.00
2023-01-17T15:09:51.275Z,11.00
2023-01-17T15:11:01.452Z,12.50
2023-01-17T15:12:04.946Z,16.75
2023-01-17T15:13:10.655Z,16.00
2023-01-17T15:14:21.586Z,12.00
2023-01-17T15:15:36.455Z,9.25
2023-01-17T15:16:39.956Z,8.25
2023-01-17T15:17:43.376Z,11.00
2023-01-17T15:18:46.206Z,12.00
2023-01-17T15:20:00.946Z,12.00
2023-01-17T15:21:05.968Z,12.00
2023-01-17T15:22:08.873Z,9.25
2023-01-17T15:23:19.846Z,14.00
2023-01-17T15:24:35.447Z,13.50
2023-01-17T15:25:39.071Z,16.00
2023-01-17T15:26:44.410Z,14.00
2023-01-17T15:27:47.123Z,12.00
2023-01-17T15:28:50.207Z,12.00
2023-01-17T15:29:53.484Z,9.00
2023-01-17T15:31:11.256Z,9.75
2023-01-17T15:32:25.296Z,9.25
2023-01-17T15:33:28.025Z,7.50
2023-01-17T15:34:32.113Z,6.50
2023-01-17T15:35:35.339Z,8.00
2023-01-17T15:36:38.053Z,8.00
2023-01-17T15:37:41.672Z,8.00
2023-01-17T15:38:55.534Z,8.00
2023-01-17T15:40:04.048Z,9.00
2023-01-17T15:41:14.720Z,9.00
2023-01-17T15:42:25.895Z,7.50
2023-01-17T15:43:37.003Z,9.00
2023-01-17T15:44:48.671Z,10.00
2023-01-17T15:45:58.140Z,12.00
2023-01-17T15:47:01.928Z,11.00
2023-01-17T15:48:41.661Z,10.00
2023-01-17T15:49:52.145Z,11.00
2023-01-17T15:51:00.725Z,12.00
2023-01-17T15:52:03.341Z,13.50
2023-01-17T15:53:14.411Z,12.75
2023-01-17T15:54:32.262Z,8.25
2023-01-17T15:55:38.407Z,10.75
2023-01-17T15:56:43.017Z,8.00
2023-01-17T15:57:48.641Z,7.50
2023-01-17T15:58:51.851Z,7.00
2023-01-17T16:00:58.602Z,7.00
2023-01-17T16:02:01.486Z,7.00
2023-01-17T16:03:22.680Z,7.50
2023-01-17T16:04:38.155Z,6.00
2023-01-17T16:05:43.040Z,7.00
2023-01-17T16:06:48.490Z,7.00
2023-01-17T16:08:07.094Z,7.50
2023-01-17T16:09:21.509Z,6.00
2023-01-17T16:10:29.761Z,7.00
2023-01-17T16:11:32.474Z,7.00
2023-01-17T16:12:35.092Z,8.00
2023-01-17T16:13:43.975Z,7.00
2023-01-17T16:15:02.817Z,7.00
2023-01-17T16:16:13.671Z,7.25
2023-01-17T16:17:18.814Z,6.75
2023-01-17T16:18:26.904Z,8.00
2023-01-17T16:19:29.564Z,11.50
2023-01-17T16:20:37.744Z,9.25
2023-01-17T16:21:40.850Z,6.75
2023-01-17T16:22:44.981Z,7.00
2023-01-17T16:23:48.164Z,7.50
2023-01-17T16:24:50.881Z,8.00
2023-01-17T16:25:55.084Z,7.50
2023-01-17T16:26:58.207Z,9.00
2023-01-17T16:28:04.611Z,8.00
2023-01-17T16:29:08.696Z,8.00
2023-01-17T16:30:16.814Z,8.00
2023-01-17T16:31:20.113Z,12.00
2023-01-17T16:32:22.789Z,9.00
2023-01-17T16:33:25.570Z,9.00
2023-01-17T16:34:28.312Z,11.75
2023-01-17T16:35:34.774Z,12.75
2023-01-17T16:36:38.107Z,13.00
2023-01-17T16:37:40.897Z,13.00
2023-01-17T16:38:45.619Z,13.00
2023-01-17T16:39:48.295Z,14.00
2023-01-17T16:40:50.937Z,13.00
2023-01-17T16:42:00.807Z,13.00
2023-01-17T16:43:03.497Z,12.00
2023-01-17T16:44:07.278Z,12.00
2023-01-17T16:45:11.750Z,13.00
2023-01-17T16:46:14.453Z,15.50
2023-01-17T16:47:17.194Z,16.75
2023-01-17T16:48:20.975Z,17.00
2023-01-17T16:49:24.004Z,16.00
2023-01-17T16:50:26.698Z,15.00
2023-01-17T16:51:29.359Z,15.00
2023-01-17T16:52:32.036Z,15.00
2023-01-17T16:53:35.006Z,15.25
2023-01-17T16:54:37.652Z,13.50
2023-01-17T16:55:42.818Z,14.50
2023-01-17T16:56:45.541Z,14.00
2023-01-17T16:57:48.317Z,14.25
2023-01-17T16:58:53.273Z,14.75
2023-01-17T16:59:56.084Z,15.00
2023-01-17T17:01:00.738Z,15.00
2023-01-17T17:02:06.259Z,15.00
2023-01-17T17:03:09.008Z,14.75
2023-01-17T17:04:14.331Z,15.00
2023-01-17T17:05:17.165Z,17.00
2023-01-17T17:06:19.885Z,17.00
2023-01-17T17:07:22.875Z,17.00
2023-01-17T17:08:25.868Z,17.00
2023-01-17T17:09:28.641Z,15.00
2023-01-17T17:10:32.458Z,15.00
2023-01-17T17:11:35.842Z,16.25
2023-01-17T17:12:39.299Z,18.50
2023-01-17T17:13:43.942Z,17.00
2023-01-17T17:14:46.973Z,16.00
2023-01-17T17:15:50.849Z,21.50
2023-01-17T17:16:54.139Z,22.00
2023-01-17T17:17:57.331Z,17.00
2023-01-17T17:19:02.940Z,18.00
2023-01-17T17:20:13.591Z,15.00
2023-01-17T17:21:16.657Z,18.00
2023-01-17T17:22:19.932Z,17.00
2023-01-17T17:23:22.661Z,16.00
2023-01-17T17:24:25.806Z,19.00
2023-01-17T17:25:28.909Z,18.00
2023-01-17T17:26:37.502Z,17.00
2023-01-17T17:27:40.631Z,17.00
2023-01-17T17:28:43.787Z,16.50
2023-01-17T17:29:46.449Z,16.00
2023-01-17T17:30:49.160Z,37.00
2023-01-17T17:31:51.893Z,38.75
2023-01-17T17:32:54.541Z,41.00
2023-01-17T17:34:02.603Z,35.50
2023-01-17T17:35:11.493Z,44.00
2023-01-17T17:36:14.652Z,40.50
2023-01-17T17:37:17.703Z,46.00
2023-01-17T17:38:20.336Z,32.50
2023-01-17T17:39:22.974Z,32.00
2023-01-17T17:40:25.679Z,40.25
2023-01-17T17:41:35.001Z,45.50
2023-01-17T17:42:37.775Z,41.00
2023-01-17T17:43:42.295Z,38.00
2023-01-17T17:44:44.910Z,41.50
2023-01-17T17:45:47.709Z,43.00
2023-01-17T17:46:52.394Z,42.00
2023-01-17T17:47:55.171Z,41.50
2023-01-17T17:49:02.097Z,36.50
2023-01-17T17:50:07.938Z,37.50
2023-01-17T17:51:26.590Z,39.00
2023-01-17T17:52:29.754Z,35.00
2023-01-17T17:53:33.352Z,29.25
2023-01-17T17:54:36.420Z,36.25
2023-01-17T17:55:41.131Z,37.00
2023-01-17T17:56:48.414Z,27.75
2023-01-17T17:57:51.221Z,22.00
2023-01-17T17:58:54.407Z,21.75
2023-01-17T17:59:57.836Z,20.00
2023-01-17T18:01:03.969Z,19.00
2023-01-17T18:02:11.673Z,21.00
2023-01-17T18:03:14.449Z,18.75
2023-01-17T18:04:17.227Z,15.00
2023-01-17T18:05:19.854Z,14.75
2023-01-17T18:06:22.808Z,14.25
2023-01-17T18:07:25.463Z,13.00
2023-01-17T18:08:33.487Z,9.50
2023-01-17T18:09:36.140Z,10.50
2023-01-17T18:10:39.350Z,13.50
2023-01-17T18:11:43.773Z,15.00
2023-01-17T18:12:46.478Z,15.00
2023-01-17T18:13:53.551Z,12.50
2023-01-17T18:14:56.225Z,10.00
2023-01-17T18:16:29.912Z,8.50
2023-01-17T18:17:32.819Z,6.00
2023-01-17T18:18:37.720Z,5.50
2023-01-17T18:19:41.172Z,8.00
2023-01-17T18:20:43.818Z,5.25
2023-01-17T18:21:47.133Z,5.00
2023-01-17T18:22:49.771Z,4.00
2023-01-17T18:24:14.028Z,7.00
2023-01-17T18:25:16.875Z,8.75
2023-01-17T18:27:52.389Z,6.00
2023-01-17T18:28:56.734Z,7.00
2023-01-17T18:29:59.647Z,7.00
2023-01-17T18:31:06.698Z,6.50
2023-01-17T18:32:09.728Z,7.00
2023-01-17T18:33:13.903Z,7.00
2023-01-17T18:34:30.225Z,5.75
2023-01-17T18:35:32.919Z,7.00
2023-01-17T18:36:35.954Z,7.00
2023-01-17T18:37:38.679Z,6.00
2023-01-17T18:38:47.470Z,6.00
2023-01-17T18:39:50.490Z,6.00
2023-01-17T18:40:53.101Z,5.00
2023-01-17T18:41:59.546Z,5.00
2023-01-17T18:43:02.178Z,3.00
2023-01-17T18:44:07.131Z,6.00
2023-01-17T18:45:10.199Z,3.00
2023-01-17T18:46:13.824Z,3.00
2023-01-17T18:47:16.502Z,3.00
2023-01-17T18:48:19.110Z,3.50
2023-01-17T18:49:21.800Z,3.00
2023-01-17T18:50:24.568Z,6.00
2023-01-17T18:51:29.486Z,3.00
2023-01-17T18:52:32.194Z,3.00
2023-01-17T18:53:36.532Z,3.00
2023-01-17T18:54:39.168Z,3.00
2023-01-17T18:55:41.804Z,3.00
2023-01-17T18:56:44.567Z,3.00
2023-01-17T18:57:47.215Z,3.75
2023-01-17T18:58:51.504Z,3.00
2023-01-17T18:59:54.253Z,2.00
2023-01-17T19:01:08.003Z,3.00
2023-01-17T19:02:10.740Z,3.00
2023-01-17T19:03:13.425Z,2.50
2023-01-17T19:04:17.480Z,3.00
2023-01-17T19:05:22.675Z,3.00
2023-01-17T19:06:28.508Z,3.00
2023-01-17T19:07:33.469Z,2.00
2023-01-17T19:08:36.663Z,1.00
2023-01-17T19:09:39.568Z,1.00
2023-01-17T19:10:42.377Z,2.00
2023-01-17T19:11:46.108Z,1.25
2023-01-17T19:12:48.767Z,2.00
2023-01-17T19:13:53.460Z,2.75
2023-01-17T19:14:56.080Z,1.00
2023-01-17T19:16:02.053Z,0.00
2023-01-17T19:17:04.859Z,1.00
2023-01-17T19:18:07.517Z,1.00
2023-01-17T19:19:16.662Z,0.25
2023-01-17T19:20:20.073Z,0.00
2023-01-17T19:21:25.340Z,0.00
2023-01-17T19:22:28.012Z,0.00
2023-01-17T19:23:30.663Z,0.00
2023-01-17T19:24:33.400Z,0.00
2023-01-17T19:25:36.853Z,0.00
2023-01-17T19:26:40.234Z,0.00
2023-01-17T19:27:43.180Z,0.00
2023-01-17T19:28:47.859Z,0.00
2023-01-17T19:29:50.459Z,0.00
2023-01-17T19:31:06.356Z,0.00
2023-01-17T19:32:10.797Z,0.00
2023-01-17T19:33:13.514Z,0.00
2023-01-17T19:34:25.808Z,0.00
2023-01-17T19:35:28.429Z,0.00
2023-01-17T19:36:37.993Z,0.50
2023-01-17T19:37:52.223Z,0.00
2023-01-17T19:39:04.514Z,0.00
2023-01-17T19:40:09.505Z,0.25
2023-01-17T19:41:18.015Z,0.00
2023-01-17T19:42:21.449Z,0.00
2023-01-17T19:43:24.484Z,0.00
2023-01-17T19:44:30.486Z,0.00
2023-01-17T19:45:33.200Z,0.00
2023-01-17T19:46:38.417Z,0.50
2023-01-17T19:47:41.288Z,0.00
2023-01-17T19:48:50.702Z,0.00
2023-01-17T19:49:53.505Z,0.00
2023-01-17T19:50:56.817Z,0.00
2023-01-17T19:51:59.446Z,0.00
2023-01-17T19:53:02.109Z,0.00
2023-01-17T19:55:26.741Z,0.00
2023-01-17T19:56:30.706Z,2.00
2023-01-17T19:57:35.967Z,2.50
2023-01-17T19:58:39.557Z,5.00
2023-01-17T19:59:42.191Z,8.00
2023-01-17T20:00:46.732Z,10.50
2023-01-17T20:01:50.502Z,13.50
2023-01-17T20:02:53.300Z,7.50
2023-01-17T20:03:57.744Z,0.50
2023-01-17T20:05:00.678Z,2.75
2023-01-17T20:06:03.362Z,6.00
2023-01-17T20:07:06.024Z,5.00
2023-01-17T20:08:10.863Z,5.00
2023-01-17T20:09:14.373Z,3.00
2023-01-17T20:10:18.688Z,1.00
2023-01-17T20:11:23.761Z,5.00
2023-01-17T20:12:26.586Z,2.00
2023-01-17T20:13:29.235Z,3.00
2023-01-17T20:14:31.895Z,2.00
2023-01-17T20:15:35.368Z,0.00
2023-01-17T20:16:38.580Z,0.00
2023-01-17T20:17:41.225Z,2.50
2023-01-17T20:18:44.209Z,2.00
2023-01-17T20:19:47.468Z,2.75
2023-01-17T20:20:57.127Z,1.75
2023-01-17T20:22:00.186Z,0.25
2023-01-17T20:23:06.511Z,0.00
2023-01-17T20:24:12.243Z,0.00
2023-01-17T20:25:15.609Z,0.00
2023-01-17T20:26:20.961Z,1.50
2023-01-17T20:27:27.608Z,0.00
2023-01-17T20:28:34.820Z,0.00
2023-01-17T20:29:41.602Z,0.00
2023-01-17T20:30:44.245Z,0.00
2023-01-17T20:31:47.382Z,0.00
2023-01-17T20:32:50.076Z,0.00
2023-01-17T20:33:55.163Z,0.00
2023-01-17T20:34:58.232Z,0.00
2023-01-17T20:36:10.454Z,4.50
2023-01-17T20:37:13.641Z,11.00
2023-01-17T20:38:16.524Z,2.75
2023-01-17T20:39:20.623Z,0.00
2023-01-17T20:40:23.269Z,5.25
2023-01-17T20:41:30.733Z,2.50
2023-01-17T20:42:37.186Z,5.00
2023-01-17T20:43:39.888Z,3.00
2023-01-17T20:44:42.518Z,2.25
2023-01-17T20:45:45.247Z,0.00
2023-01-17T20:46:49.086Z,3.00